Time;durP1;ratioP1;P1;durP2;ratioP2;P2;SDS_P1;SDS_P2;PMS_P1;PMS_P2;Temp;Humidity;BMP_temperature;BMP_pressure;BME280_temperature;BME280_humidity;BME280_pressure;Samples;Min_cycle;Max_cycle;Signal;HPM_P1;HPM_P2
2021/09/30 00:02:50;;;;;;;2.17;0.85;;;18.20;71.40;;;;;;10500086;28;20035;-55
2021/09/30 00:07:51;;;;;;;1.80;0.60;;;18.20;71.60;;;;;;10500218;28;20104;-55
2021/09/30 00:13:06;;;;;;;2.47;1.10;;;18.20;71.40;;;;;;10498223;28;20111;-55
2021/09/30 00:34:20;;;;;;;2.00;0.80;;;18.20;71.20;;;;;;10498789;28;20442;-55
2021/09/30 00:50:09;;;;;;;3.35;0.90;;;18.20;71.20;;;;;;10485451;28;20045;-55
2021/09/30 02:27:12;;;;;;;2.88;0.90;;;18.00;70.60;;;;;;10495263;28;20028;-55
2021/09/30 02:34:51;;;;;;;2.25;0.90;;;18.00;70.40;;;;;;10495906;28;20091;-55
2021/09/30 02:59:22;;;;;;;2.97;0.90;;;18.00;70.30;;;;;;10503719;28;20119;-55
2021/09/30 03:04:24;;;;;;;3.65;1.15;;;18.00;70.30;;;;;;10501175;28;20115;-55
2021/09/30 03:09:37;;;;;;;2.35;1.00;;;18.00;70.40;;;;;;10501303;28;20507;-54
2021/09/30 03:14:45;;;;;;;1.95;0.70;;;18.00;70.30;;;;;;10494770;28;20038;-55
2021/09/30 03:24:50;;;;;;;1.67;0.90;;;17.90;70.00;;;;;;10500531;28;20036;-55
2021/09/30 03:29:51;;;;;;;2.70;1.00;;;18.00;70.50;;;;;;10501803;28;20056;-55
2021/09/30 03:34:52;;;;;;;5.28;0.75;;;17.90;70.00;;;;;;10500290;28;20039;-55
2021/09/30 03:39:52;;;;;;;2.75;1.00;;;17.90;70.20;;;;;;10500101;28;20103;-55
2021/09/30 03:44:53;;;;;;;0.88;0.80;;;17.90;70.20;;;;;;10500526;28;20476;-55
2021/09/30 03:49:54;;;;;;;2.20;1.08;;;17.90;70.10;;;;;;10499763;28;20098;-55
2021/09/30 03:55:21;;;;;;;2.65;0.90;;;17.90;70.20;;;;;;10500624;28;20037;-55
2021/09/30 04:00:17;;;;;;;1.90;0.85;;;17.90;70.00;;;;;;10498463;28;20056;-55
2021/09/30 04:05:18;;;;;;;4.90;1.13;;;17.90;69.90;;;;;;10500496;28;20032;-55
2021/09/30 04:10:18;;;;;;;2.72;0.77;;;17.90;69.90;;;;;;10515696;28;20028;-55
2021/09/30 04:15:19;;;;;;;3.42;1.15;;;17.90;70.10;;;;;;10499996;28;20170;-55
2021/09/30 04:20:21;;;;;;;2.40;1.10;;;17.90;69.90;;;;;;10499649;28;20029;-54
2021/09/30 04:25:22;;;;;;;2.03;0.90;;;17.90;70.20;;;;;;10499495;28;20027;-55
2021/09/30 04:30:23;;;;;;;2.33;1.00;;;17.90;69.90;;;;;;10497765;28;20072;-55
2021/09/30 04:35:23;;;;;;;1.58;0.85;;;17.80;69.80;;;;;;10497840;28;20064;-55
2021/09/30 04:40:24;;;;;;;3.28;1.40;;;17.80;70.20;;;;;;10498838;28;20032;-54
2021/09/30 04:45:25;;;;;;;2.65;0.98;;;17.80;69.80;;;;;;10476261;28;20024;-55
2021/09/30 04:50:26;;;;;;;1.63;0.90;;;17.80;69.90;;;;;;10490548;28;20103;-56
2021/09/30 04:55:27;;;;;;;2.70;1.00;;;17.80;69.90;;;;;;10486592;28;20039;-55
2021/09/30 05:00:27;;;;;;;1.95;1.17;;;17.80;69.90;;;;;;10496704;28;20036;-56
2021/09/30 05:05:28;;;;;;;3.33;0.82;;;17.80;70.20;;;;;;10497692;28;20043;-56
2021/09/30 05:10:33;;;;;;;5.35;1.58;;;18.00;70.30;;;;;;10496713;28;20134;-56
2021/09/30 05:15:36;;;;;;;8.82;1.55;;;18.10;70.20;;;;;;10496934;28;20021;-56
2021/09/30 05:20:37;;;;;;;7.53;1.52;;;18.10;70.20;;;;;;10496206;28;20250;-56
2021/09/30 05:25:38;;;;;;;9.13;1.80;;;18.10;70.70;;;;;;10503944;28;20217;-57
2021/09/30 05:30:39;;;;;;;5.85;1.35;;;18.10;70.30;;;;;;10494087;28;20115;-56
2021/09/30 05:35:39;;;;;;;5.43;1.58;;;18.00;70.50;;;;;;10495242;28;20024;-54
2021/09/30 05:40:41;;;;;;;7.35;1.50;;;18.00;70.40;;;;;;10496990;28;20064;-55
2021/09/30 05:45:43;;;;;;;7.55;1.60;;;18.00;70.30;;;;;;10496712;28;20036;-53
2021/09/30 05:50:43;;;;;;;6.63;1.65;;;18.00;70.20;;;;;;10495409;28;20036;-53
2021/09/30 05:55:46;;;;;;;9.07;1.75;;;18.00;70.30;;;;;;10496312;28;20036;-54
2021/09/30 06:11:43;;;;;;;12.73;3.20;;;17.90;70.50;;;;;;10504591;28;20036;-56
2021/09/30 06:16:49;;;;;;;12.02;2.15;;;17.90;70.50;;;;;;10503464;28;20040;-56
2021/09/30 06:21:52;;;;;;;10.95;2.22;;;17.90;70.70;;;;;;10504357;28;20063;-56
2021/09/30 06:26:53;;;;;;;8.13;2.08;;;17.80;70.20;;;;;;10497250;28;20032;-54
2021/09/30 06:31:53;;;;;;;8.60;2.97;;;17.80;70.90;;;;;;10496650;28;20052;-55
2021/09/30 06:36:54;;;;;;;8.27;2.22;;;17.90;70.90;;;;;;10501264;28;20044;-56
2021/09/30 06:41:55;;;;;;;10.30;2.38;;;17.90;70.90;;;;;;10502167;28;20036;-56
2021/09/30 06:46:56;;;;;;;8.52;1.95;;;18.00;70.90;;;;;;10500005;28;20037;-55
2021/09/30 06:51:56;;;;;;;7.80;1.75;;;18.00;71.10;;;;;;10501409;28;20039;-55
2021/09/30 06:56:57;;;;;;;6.10;2.20;;;17.90;70.90;;;;;;10501830;28;20060;-55
2021/09/30 07:01:59;;;;;;;6.65;2.28;;;17.90;71.00;;;;;;10501233;28;20043;-55
2021/09/30 07:07:01;;;;;;;5.63;1.70;;;18.00;71.00;;;;;;10497127;28;20033;-55
2021/09/30 07:12:02;;;;;;;8.50;1.85;;;17.90;71.10;;;;;;10482835;28;20039;-55
2021/09/30 07:17:03;;;;;;;7.93;1.90;;;18.00;71.00;;;;;;10501714;28;20161;-55
2021/09/30 07:22:07;;;;;;;9.88;1.77;;;18.00;71.10;;;;;;10497142;28;20036;-55
2021/09/30 07:27:09;;;;;;;4.93;2.20;;;18.00;71.10;;;;;;10499127;28;20039;-55
2021/09/30 07:32:11;;;;;;;6.78;1.58;;;18.00;71.00;;;;;;10497608;28;20048;-54
2021/09/30 07:37:12;;;;;;;5.45;1.70;;;18.00;70.80;;;;;;10501734;28;20032;-54
2021/09/30 07:42:13;;;;;;;5.72;1.65;;;18.00;71.10;;;;;;10499572;28;20033;-53
2021/09/30 07:47:14;;;;;;;2.70;1.42;;;18.00;71.10;;;;;;10501048;28;20020;-54
2021/09/30 07:52:14;;;;;;;3.42;1.45;;;18.00;71.00;;;;;;10499099;28;20031;-55
2021/09/30 07:57:15;;;;;;;3.40;1.48;;;18.10;70.70;;;;;;10499426;28;20024;-54
2021/09/30 08:02:16;;;;;;;2.90;1.17;;;18.10;70.70;;;;;;10499480;28;20036;-55
2021/09/30 08:07:16;;;;;;;5.57;1.52;;;18.10;70.70;;;;;;10500354;28;20032;-53
2021/09/30 08:12:17;;;;;;;4.80;1.80;;;18.20;70.90;;;;;;10500096;28;20036;-55
2021/09/30 08:17:18;;;;;;;4.97;1.52;;;18.20;70.90;;;;;;10498359;28;20031;-54
2021/09/30 08:22:19;;;;;;;3.65;1.50;;;18.20;70.90;;;;;;10491814;28;20040;-54
2021/09/30 08:27:19;;;;;;;6.75;1.75;;;18.20;70.80;;;;;;10493004;28;20032;-53
2021/09/30 08:32:20;;;;;;;4.32;1.88;;;18.20;70.10;;;;;;10486590;28;20123;-54
2021/09/30 08:37:21;;;;;;;7.47;1.85;;;18.20;70.10;;;;;;10497479;28;20056;-54
2021/09/30 08:42:21;;;;;;;3.50;1.33;;;18.20;70.10;;;;;;10497656;28;20116;-54
2021/09/30 08:47:22;;;;;;;3.63;1.38;;;18.20;70.00;;;;;;10497434;28;20028;-51
2021/09/30 08:52:24;;;;;;;3.22;1.10;;;18.20;69.90;;;;;;10503816;28;20044;-54
2021/09/30 08:57:25;;;;;;;3.67;1.20;;;18.10;70.00;;;;;;10494711;28;20048;-53
2021/09/30 09:02:25;;;;;;;4.65;1.27;;;18.10;70.00;;;;;;10478714;28;20070;-54
2021/09/30 09:07:31;;;;;;;8.60;1.80;;;18.10;69.90;;;;;;10497496;28;20103;-53
2021/09/30 09:12:32;;;;;;;5.85;1.60;;;18.10;70.00;;;;;;10497691;28;20029;-54
2021/09/30 09:17:32;;;;;;;8.50;1.63;;;18.10;69.90;;;;;;10497944;28;20025;-53
2021/09/30 09:22:37;;;;;;;4.03;1.70;;;18.10;69.90;;;;;;10497413;28;20051;-54
2021/09/30 09:27:55;;;;;;;4.25;1.45;;;18.10;69.90;;;;;;10497227;28;20097;-54
2021/09/30 09:33:04;;;;;;;4.18;1.55;;;18.10;69.80;;;;;;10496926;28;20397;-54
2021/09/30 09:38:05;;;;;;;4.53;1.50;;;18.10;69.60;;;;;;10496881;28;20035;-54
2021/09/30 09:43:35;;;;;;;6.47;1.45;;;18.20;69.70;;;;;;10496140;28;20108;-54
2021/09/30 09:48:37;;;;;;;5.95;1.83;;;18.20;69.40;;;;;;10502077;28;20020;-54
2021/09/30 09:53:39;;;;;;;3.78;1.30;;;18.30;69.40;;;;;;10498325;28;20370;-54
2021/09/30 09:58:58;;;;;;;4.30;1.20;;;18.30;69.40;;;;;;10496681;28;20119;-54
2021/09/30 10:04:00;;;;;;;4.77;1.40;;;18.30;69.10;;;;;;10496475;28;20150;-53
2021/09/30 10:09:05;;;;;;;4.50;1.70;;;18.30;69.10;;;;;;10495039;28;20028;-52
2021/09/30 10:14:08;;;;;;;3.13;1.38;;;18.30;68.90;;;;;;10496307;28;20036;-54
2021/09/30 10:19:09;;;;;;;4.53;1.65;;;18.40;68.90;;;;;;10496009;28;20112;-54
2021/09/30 10:24:19;;;;;;;3.42;1.30;;;18.40;68.90;;;;;;10496380;28;20038;-54
2021/09/30 10:29:45;;;;;;;5.07;1.73;;;18.40;69.00;;;;;;10494550;28;20040;-54
2021/09/30 10:34:57;;;;;;;3.53;1.35;;;18.40;68.60;;;;;;10494692;28;20111;-54
2021/09/30 10:40:20;;;;;;;3.20;1.25;;;18.40;68.40;;;;;;10495826;28;20055;-52
2021/09/30 10:45:24;;;;;;;3.13;1.20;;;18.40;68.60;;;;;;10495635;28;20028;-54
2021/09/30 10:50:49;;;;;;;4.00;1.30;;;18.40;68.60;;;;;;10504351;28;20389;-54
2021/09/30 10:55:49;;;;;;;3.60;1.27;;;18.30;68.70;;;;;;10499245;28;20059;-53
2021/09/30 11:00:57;;;;;;;3.22;1.30;;;18.30;68.80;;;;;;10501772;28;20112;-54
2021/09/30 11:06:07;;;;;;;2.47;1.27;;;18.30;68.80;;;;;;10502854;28;20043;-55
2021/09/30 11:11:11;;;;;;;;;;;18.30;68.80;;;;;;10503061;28;20036;-53
2021/09/30 11:16:20;;;;;;;5.18;1.40;;;18.40;68.60;;;;;;10501201;28;19909;-54
2021/09/30 11:26:34;;;;;;;5.70;1.30;;;18.40;68.40;;;;;;10501668;28;20032;-54
2021/09/30 11:31:34;;;;;;;4.80;1.20;;;18.40;68.50;;;;;;10500321;28;20588;-54
2021/09/30 11:36:38;;;;;;;4.97;1.73;;;18.30;68.40;;;;;;10500174;28;20028;-54
2021/09/30 11:41:42;;;;;;;3.95;1.25;;;18.30;68.60;;;;;;10501227;28;20112;-53
2021/09/30 11:46:49;;;;;;;3.80;1.35;;;18.30;68.50;;;;;;10501093;28;20107;-53
2021/09/30 11:51:56;;;;;;;4.82;1.23;;;18.30;68.40;;;;;;10510262;28;20381;-54
2021/09/30 11:56:57;;;;;;;4.00;1.23;;;18.30;68.40;;;;;;10499815;28;20047;-54
2021/09/30 12:02:05;;;;;;;3.35;1.45;;;18.40;68.50;;;;;;10500299;28;20028;-52
2021/09/30 12:07:22;;;;;;;3.22;0.90;;;18.30;68.40;;;;;;10499877;28;20469;-54
2021/09/30 12:12:32;;;;;;;5.15;1.00;;;18.30;68.40;;;;;;10500066;28;20020;-53
2021/09/30 12:17:36;;;;;;;3.72;1.27;;;18.30;68.50;;;;;;10499796;28;20047;-54
2021/09/30 12:22:53;;;;;;;3.75;1.10;;;18.30;68.60;;;;;;10499464;28;20561;-53
2021/09/30 12:27:58;;;;;;;2.03;0.90;;;18.30;68.60;;;;;;10472274;28;20111;-54
2021/09/30 12:33:03;;;;;;;2.78;0.82;;;18.20;68.50;;;;;;10498725;28;20162;-53
2021/09/30 12:38:16;;;;;;;2.53;0.80;;;18.30;68.40;;;;;;10498988;28;20064;-54
2021/09/30 12:43:28;;;;;;;3.38;1.00;;;18.20;68.40;;;;;;10497585;28;20029;-54
2021/09/30 12:48:30;;;;;;;2.75;0.90;;;18.20;68.40;;;;;;10503902;28;20039;-53
2021/09/30 12:53:40;;;;;;;2.85;1.08;;;18.20;68.30;;;;;;10503082;28;20036;-54
2021/09/30 12:58:48;;;;;;;1.90;1.00;;;18.20;68.40;;;;;;10497030;28;20085;-54
2021/09/30 13:04:09;;;;;;;2.08;1.10;;;18.10;68.30;;;;;;10497721;28;20028;-54
2021/09/30 13:09:22;;;;;;;3.58;1.17;;;18.20;68.40;;;;;;10497751;28;20028;-54
2021/09/30 13:14:34;;;;;;;4.93;1.20;;;18.10;68.40;;;;;;10497452;28;20468;-54
2021/09/30 13:20:08;;;;;;;3.55;1.00;;;18.10;68.20;;;;;;10496624;28;20480;-53
2021/09/30 13:25:18;;;;;;;1.92;0.93;;;18.10;68.50;;;;;;10496221;28;20032;-54
2021/09/30 13:30:26;;;;;;;3.38;1.30;;;18.10;68.40;;;;;;10497193;28;20044;-54
2021/09/30 13:35:30;;;;;;;3.05;1.00;;;18.10;68.40;;;;;;10497072;28;20056;-54
2021/09/30 13:40:32;;;;;;;3.20;0.85;;;18.10;68.30;;;;;;10496830;28;20033;-54
2021/09/30 13:45:32;;;;;;;2.53;0.90;;;18.10;68.40;;;;;;10496839;28;20029;-54
2021/09/30 13:50:33;;;;;;;2.03;0.85;;;18.10;68.40;;;;;;10506773;28;20034;-54
2021/09/30 13:55:34;;;;;;;4.88;1.17;;;18.10;68.30;;;;;;10496523;28;20082;-54
2021/09/30 14:00:35;;;;;;;3.60;0.93;;;18.10;68.60;;;;;;10495576;28;20106;-54
2021/09/30 14:05:35;;;;;;;3.53;0.60;;;18.00;68.30;;;;;;10496490;28;20360;-54
2021/09/30 14:10:36;;;;;;;2.92;0.98;;;18.00;68.60;;;;;;10495141;28;20017;-53
2021/09/30 14:15:37;;;;;;;2.47;1.05;;;18.00;68.80;;;;;;10496242;28;20060;-54
2021/09/30 14:20:38;;;;;;;3.13;0.85;;;18.00;68.80;;;;;;10496089;28;20381;-53
2021/09/30 14:25:39;;;;;;;3.55;0.80;;;18.00;68.80;;;;;;10496208;28;20036;-53
2021/09/30 14:30:39;;;;;;;1.30;0.60;;;18.00;68.70;;;;;;10500797;28;20059;-54
2021/09/30 14:35:40;;;;;;;2.25;0.77;;;18.00;68.90;;;;;;10504102;28;20047;-54
2021/09/30 14:40:48;;;;;;;1.80;0.70;;;18.00;69.00;;;;;;10503651;28;20153;-54
2021/09/30 14:45:51;;;;;;;2.72;0.68;;;18.00;68.90;;;;;;10503766;28;20413;-54
2021/09/30 14:50:52;;;;;;;2.15;1.08;;;18.00;69.00;;;;;;10511958;28;20031;-54
2021/09/30 14:55:53;;;;;;;2.33;0.70;;;17.90;69.00;;;;;;10518604;28;20129;-53
2021/09/30 15:00:53;;;;;;;3.40;1.20;;;17.90;68.90;;;;;;10502853;28;20103;-54
2021/09/30 15:05:54;;;;;;;2.20;0.93;;;17.90;68.90;;;;;;10502825;28;20392;-54
2021/09/30 15:10:55;;;;;;;3.10;1.00;;;17.90;68.90;;;;;;10502534;28;20085;-54
2021/09/30 15:15:58;;;;;;;2.50;0.73;;;17.90;68.90;;;;;;10500897;28;20032;-54
2021/09/30 15:26:18;;;;;;;2.80;1.10;;;17.90;69.10;;;;;;10500522;28;20139;-54
2021/09/30 15:31:19;;;;;;;4.32;1.10;;;17.90;68.90;;;;;;10495968;28;20036;-53
2021/09/30 15:36:25;;;;;;;5.20;1.13;;;17.90;69.00;;;;;;10501430;28;20078;-54
2021/09/30 15:41:26;;;;;;;3.90;1.63;;;17.90;69.00;;;;;;10499311;28;20048;-53
2021/09/30 15:46:27;;;;;;;2.33;1.00;;;17.90;69.10;;;;;;10501083;28;20447;-54
2021/09/30 15:51:28;;;;;;;3.88;0.90;;;17.90;69.10;;;;;;10509230;28;20078;-54
2021/09/30 15:56:29;;;;;;;2.85;1.10;;;17.90;68.70;;;;;;10500681;28;20480;-53
2021/09/30 16:01:30;;;;;;;2.95;0.90;;;17.90;69.00;;;;;;10500134;28;20040;-52
2021/09/30 16:06:31;;;;;;;7.00;1.40;;;17.90;69.00;;;;;;10497909;28;20024;-52
2021/09/30 16:11:31;;;;;;;8.75;1.58;;;18.00;68.30;;;;;;10499750;28;20036;-53
2021/09/30 16:16:32;;;;;;;10.80;2.40;;;18.20;68.30;;;;;;10499746;28;20537;-53
2021/09/30 16:21:33;;;;;;;6.15;1.83;;;18.20;68.60;;;;;;10498229;28;20556;-54
2021/09/30 16:26:33;;;;;;;10.73;2.05;;;18.20;67.40;;;;;;10484638;28;20505;-54
2021/09/30 16:31:37;;;;;;;6.95;2.47;;;18.30;66.30;;;;;;10498974;28;20045;-54
2021/09/30 16:36:40;;;;;;;11.13;2.05;;;18.50;65.90;;;;;;10481416;28;20464;-55
2021/09/30 16:41:41;;;;;;;11.18;2.75;;;18.50;66.20;;;;;;10497072;28;20145;-55
2021/09/30 16:46:42;;;;;;;13.20;2.65;;;18.40;65.80;;;;;;10498031;28;20503;-55
2021/09/30 16:51:43;;;;;;;9.18;2.15;;;18.20;66.20;;;;;;10500614;28;20032;-54
2021/09/30 16:56:46;;;;;;;10.52;2.35;;;18.10;65.40;;;;;;10495291;28;20028;-55
2021/09/30 17:01:47;;;;;;;12.38;2.72;;;18.10;64.90;;;;;;10479751;28;20203;-56
2021/09/30 17:06:48;;;;;;;20.02;3.80;;;18.10;65.50;;;;;;10496510;28;20028;-55
2021/09/30 17:11:49;;;;;;;17.17;3.95;;;18.10;65.80;;;;;;10497557;28;20056;-54
2021/09/30 17:16:49;;;;;;;11.55;2.67;;;18.20;66.00;;;;;;10495898;28;20098;-54
2021/09/30 17:21:50;;;;;;;9.13;2.83;;;18.20;66.30;;;;;;10496618;28;20465;-56
2021/09/30 17:26:51;;;;;;;7.82;2.35;;;18.10;66.40;;;;;;10477111;28;20447;-55
2021/09/30 17:31:53;;;;;;;12.55;2.50;;;18.10;67.20;;;;;;10496174;28;20044;-56
2021/09/30 17:36:54;;;;;;;13.38;2.38;;;18.10;67.00;;;;;;10496819;28;20064;-55
2021/09/30 17:41:54;;;;;;;6.43;2.38;;;18.10;67.10;;;;;;10496805;28;20511;-56
2021/09/30 17:46:55;;;;;;;8.98;2.35;;;18.20;67.00;;;;;;10494093;28;20447;-55
2021/09/30 17:51:56;;;;;;;7.63;2.22;;;18.10;67.20;;;;;;10501616;28;20029;-53
2021/09/30 17:56:57;;;;;;;13.40;2.35;;;18.10;67.50;;;;;;10495307;28;20086;-55
2021/09/30 18:01:58;;;;;;;5.47;1.90;;;18.20;67.70;;;;;;10494431;28;20625;-55
2021/09/30 18:06:58;;;;;;;15.13;3.20;;;18.20;67.60;;;;;;10502061;28;20036;-53
2021/09/30 18:12:00;;;;;;;8.20;2.40;;;18.20;67.90;;;;;;10503296;28;20070;-56
2021/09/30 18:17:00;;;;;;;14.82;3.17;;;18.10;67.80;;;;;;10500745;28;20024;-56
2021/09/30 18:22:01;;;;;;;16.30;2.90;;;18.20;67.60;;;;;;10500779;28;20401;-56
2021/09/30 18:27:04;;;;;;;10.88;2.58;;;18.10;67.50;;;;;;10500880;28;20036;-55
2021/09/30 18:32:05;;;;;;;8.07;2.15;;;18.10;67.60;;;;;;10501171;28;20056;-55
2021/09/30 18:37:06;;;;;;;8.98;3.58;;;18.10;67.50;;;;;;10500594;28;20111;-56
2021/09/30 18:42:08;;;;;;;12.50;2.75;;;18.10;67.60;;;;;;10501304;28;20043;-55
2021/09/30 18:47:10;;;;;;;9.15;2.00;;;18.10;67.60;;;;;;10500965;28;20159;-53
2021/09/30 18:52:11;;;;;;;8.88;2.22;;;18.10;67.60;;;;;;10501526;28;20078;-54
2021/09/30 18:57:11;;;;;;;7.57;2.22;;;18.00;67.50;;;;;;10501482;28;20106;-55
2021/09/30 19:02:12;;;;;;;9.70;2.40;;;18.10;68.10;;;;;;10500505;28;20028;-55
2021/09/30 19:07:13;;;;;;;5.40;2.08;;;18.00;68.30;;;;;;10499902;28;20052;-55
2021/09/30 19:12:14;;;;;;;8.13;2.22;;;18.00;68.60;;;;;;10498321;28;20133;-54
2021/09/30 19:17:14;;;;;;;6.50;2.17;;;17.90;68.60;;;;;;10493615;28;20029;-54
2021/09/30 19:22:15;;;;;;;5.20;1.73;;;17.90;68.70;;;;;;10498860;28;20028;-54
2021/09/30 19:27:16;;;;;;;7.15;1.92;;;17.90;68.60;;;;;;10500606;28;20047;-54
2021/09/30 19:32:17;;;;;;;9.02;2.30;;;17.90;68.70;;;;;;10501710;28;20047;-54
2021/09/30 19:37:18;;;;;;;6.95;2.42;;;17.80;68.40;;;;;;10501602;28;20031;-54
2021/09/30 19:42:19;;;;;;;4.35;1.73;;;17.80;68.40;;;;;;10501627;28;20103;-54
2021/09/30 19:47:20;;;;;;;8.13;2.17;;;17.80;68.40;;;;;;10501653;28;20020;-53
2021/09/30 19:52:20;;;;;;;4.13;1.90;;;17.80;68.30;;;;;;10501039;28;20120;-53
2021/09/30 19:57:21;;;;;;;3.65;1.80;;;17.80;68.20;;;;;;10501162;28;20036;-54
2021/09/30 20:02:22;;;;;;;6.88;1.73;;;17.80;68.30;;;;;;10500934;28;20061;-54
2021/09/30 20:07:22;;;;;;;4.95;1.63;;;17.80;68.30;;;;;;10492010;28;20035;-54
2021/09/30 20:12:23;;;;;;;7.63;2.05;;;17.70;68.10;;;;;;10500881;28;20065;-55
2021/09/30 20:17:24;;;;;;;4.97;1.67;;;17.80;68.30;;;;;;10500088;28;20661;-55
2021/09/30 20:22:25;;;;;;;7.55;1.73;;;17.70;68.10;;;;;;10500098;28;20033;-55
2021/09/30 20:27:26;;;;;;;4.68;1.50;;;17.70;68.20;;;;;;10499496;28;20033;-54
2021/09/30 20:32:28;;;;;;;3.58;1.60;;;17.70;68.60;;;;;;10499728;28;20056;-54
2021/09/30 20:37:29;;;;;;;5.25;1.67;;;17.70;68.00;;;;;;10499295;28;20119;-55
2021/09/30 20:42:30;;;;;;;4.63;1.80;;;17.70;68.10;;;;;;10499335;28;20115;-55
2021/09/30 20:47:30;;;;;;;4.90;1.88;;;17.70;68.20;;;;;;10497707;28;20391;-54
2021/09/30 20:52:31;;;;;;;3.97;1.50;;;17.70;68.20;;;;;;10508081;28;20021;-54
2021/09/30 20:57:32;;;;;;;5.68;1.77;;;17.70;68.20;;;;;;10498426;28;20048;-54
2021/09/30 21:02:33;;;;;;;7.32;1.90;;;17.70;68.20;;;;;;10498458;28;20032;-55
2021/09/30 21:07:34;;;;;;;1.77;1.13;;;17.70;68.70;;;;;;10496980;28;20554;-55
2021/09/30 21:12:35;;;;;;;4.45;1.73;;;17.70;68.10;;;;;;10498315;28;20115;-55
2021/09/30 21:17:36;;;;;;;4.30;1.38;;;17.70;68.00;;;;;;10497633;28;20082;-54
2021/09/30 21:22:37;;;;;;;4.18;1.58;;;17.70;68.00;;;;;;10497739;28;20088;-54
2021/09/30 21:27:38;;;;;;;3.15;1.33;;;17.60;67.90;;;;;;10484022;28;20085;-55
2021/09/30 21:32:40;;;;;;;5.10;2.10;;;17.70;67.90;;;;;;10497427;28;20496;-54
2021/09/30 21:37:42;;;;;;;6.95;1.63;;;17.60;67.80;;;;;;10496601;28;20086;-55
2021/09/30 21:42:43;;;;;;;2.80;1.33;;;17.70;68.00;;;;;;10497425;28;20432;-54
2021/09/30 21:47:45;;;;;;;4.00;1.30;;;17.60;67.80;;;;;;10495588;28;20432;-54
2021/09/30 21:52:45;;;;;;;3.75;1.45;;;17.60;67.80;;;;;;10498554;28;20021;-54
2021/09/30 21:57:46;;;;;;;3.60;1.60;;;17.60;67.90;;;;;;10496917;28;20032;-55
2021/09/30 22:02:48;;;;;;;5.50;2.08;;;17.60;68.00;;;;;;10496929;28;20060;-54
2021/09/30 22:07:49;;;;;;;5.05;1.73;;;17.60;67.90;;;;;;10496602;28;20036;-55
2021/09/30 22:12:50;;;;;;;4.53;1.42;;;17.60;67.80;;;;;;10496840;28;20070;-55
2021/09/30 22:17:50;;;;;;;3.05;1.08;;;17.60;67.70;;;;;;10496364;28;20510;-53
2021/09/30 22:22:51;;;;;;;3.60;1.40;;;17.60;67.80;;;;;;10496531;28;20032;-54
2021/09/30 22:27:54;;;;;;;3.38;1.50;;;17.60;67.80;;;;;;10482569;28;20043;-55
2021/09/30 22:32:55;;;;;;;2.92;1.25;;;17.60;67.80;;;;;;10496102;28;20600;-55
2021/09/30 22:37:56;;;;;;;2.78;1.00;;;17.60;67.90;;;;;;10495908;28;20033;-55
2021/09/30 22:42:56;;;;;;;4.88;1.40;;;17.50;67.80;;;;;;10495896;28;20040;-55
2021/09/30 22:47:57;;;;;;;2.70;1.35;;;17.60;67.90;;;;;;10496464;28;20085;-55
2021/09/30 22:52:58;;;;;;;3.22;1.33;;;17.50;67.70;;;;;;10503189;28;20448;-55
2021/09/30 22:57:58;;;;;;;5.72;1.75;;;17.50;67.70;;;;;;10503291;28;20107;-54
2021/09/30 23:02:59;;;;;;;4.43;1.85;;;17.50;67.60;;;;;;10503583;28;20124;-55
2021/09/30 23:08:00;;;;;;;3.30;1.10;;;17.50;67.60;;;;;;10502583;28;20043;-55
2021/09/30 23:13:00;;;;;;;3.25;1.27;;;17.60;67.70;;;;;;10501523;28;20056;-54
2021/09/30 23:18:01;;;;;;;4.00;1.90;;;17.50;67.60;;;;;;10502486;28;20089;-55
2021/09/30 23:23:02;;;;;;;3.17;1.35;;;17.50;67.60;;;;;;10502617;28;20048;-55
2021/09/30 23:28:02;;;;;;;3.15;1.08;;;17.50;67.60;;;;;;10498611;28;20115;-55
2021/09/30 23:33:04;;;;;;;3.55;1.50;;;17.50;67.60;;;;;;10500619;28;20036;-54
2021/09/30 23:38:05;;;;;;;2.50;1.38;;;17.50;67.50;;;;;;10501614;28;20036;-55
2021/09/30 23:43:06;;;;;;;2.22;0.93;;;17.50;67.50;;;;;;10501693;28;20033;-54
2021/09/30 23:48:07;;;;;;;3.13;1.95;;;17.50;67.50;;;;;;10502438;28;20040;-53
2021/09/30 23:53:08;;;;;;;3.30;1.33;;;17.50;67.50;;;;;;10501787;28;20051;-55
2021/09/30 23:58:08;;;;;;;4.05;1.70;;;17.50;67.60;;;;;;10500857;28;20047;-55
